Time;durP1;ratioP1;P1;durP2;ratioP2;P2;SDS_P1;SDS_P2;PMS_P1;PMS_P2;Temp;Humidity;BMP_temperature;BMP_pressure;BME280_temperature;BME280_humidity;BME280_pressure;Samples;Min_cycle;Max_cycle;Signal;HPM_P1;HPM_P2
2022/10/29 00:02:30;;;;;;;18.10;10.60;;;;;;;10.41;100.00;99362.73;214456;1309;22512;-72
2022/10/29 00:07:32;;;;;;;17.60;10.00;;;;;;;10.40;100.00;99366.95;214796;1303;22471;-73
2022/10/29 00:12:34;;;;;;;18.20;10.40;;;;;;;10.40;100.00;99366.48;214541;1310;22465;-76
2022/10/29 00:17:35;;;;;;;16.80;10.00;;;;;;;10.41;100.00;99365.13;214501;1304;23020;-73
2022/10/29 00:22:37;;;;;;;15.60;9.80;;;;;;;10.37;100.00;99360.70;214651;1309;25292;-73
2022/10/29 00:27:39;;;;;;;15.60;9.90;;;;;;;10.38;100.00;99361.45;214546;1309;25333;-74
2022/10/29 00:32:41;;;;;;;17.40;9.70;;;;;;;10.35;100.00;99358.63;214532;1304;22465;-74
2022/10/29 00:37:43;;;;;;;15.70;9.50;;;;;;;10.34;100.00;99363.39;214637;1309;25854;-74
2022/10/29 00:42:44;;;;;;;15.80;9.50;;;;;;;10.36;100.00;99367.39;214688;1309;22620;-74
2022/10/29 00:47:50;;;;;;;16.70;9.30;;;;;;;10.34;100.00;99354.80;214713;1309;22480;-75
2022/10/29 00:52:53;;;;;;;17.70;9.40;;;;;;;10.32;100.00;99350.13;214595;1309;24301;-74
2022/10/29 00:57:56;;;;;;;16.70;9.60;;;;;;;10.28;100.00;99346.02;214767;1309;25385;-74
2022/10/29 01:02:58;;;;;;;15.10;9.50;;;;;;;10.25;100.00;99341.16;214555;1308;22470;-74
2022/10/29 01:08:02;;;;;;;18.90;9.80;;;;;;;10.22;100.00;99346.27;214573;1309;24326;-74
2022/10/29 01:13:42;;;;;;;15.10;9.30;;;;;;;10.20;100.00;99346.04;214912;1309;24327;-73
2022/10/29 01:19:16;;;;;;;17.00;9.70;;;;;;;10.18;100.00;99335.48;214649;1309;23129;-74
2022/10/29 01:24:33;;;;;;;15.80;9.20;;;;;;;10.15;100.00;99329.77;214695;1309;24318;-73
2022/10/29 01:30:04;;;;;;;15.50;9.10;;;;;;;10.14;100.00;99334.17;214616;1309;22478;-73
2022/10/29 01:35:18;;;;;;;18.70;10.60;;;;;;;10.14;100.00;99331.39;214809;1309;25279;-74
2022/10/29 01:40:27;;;;;;;14.10;9.10;;;;;;;10.14;100.00;99337.39;214728;1309;22599;-73
2022/10/29 01:45:40;;;;;;;17.00;9.40;;;;;;;10.13;100.00;99334.61;214556;1309;22477;-74
2022/10/29 01:50:45;;;;;;;16.30;9.70;;;;;;;10.14;100.00;99329.02;214814;1309;25427;-74
2022/10/29 01:55:47;;;;;;;16.10;10.00;;;;;;;10.16;100.00;99336.31;214623;1305;22607;-75
2022/10/29 02:01:00;;;;;;;17.50;9.80;;;;;;;10.17;100.00;99326.08;214838;1309;26382;-73
2022/10/29 02:06:39;;;;;;;18.00;9.80;;;;;;;10.19;100.00;99325.91;214665;1309;391067;-73
2022/10/29 02:12:02;;;;;;;15.40;9.60;;;;;;;10.22;100.00;99319.59;214747;1304;22526;-73
2022/10/29 02:17:05;;;;;;;16.80;11.00;;;;;;;10.25;100.00;99304.74;214690;1309;25387;-74
2022/10/29 02:22:07;;;;;;;18.20;11.20;;;;;;;10.26;100.00;99294.35;214605;1309;22524;-74
2022/10/29 02:27:08;;;;;;;17.50;9.90;;;;;;;10.26;100.00;99296.98;214757;1285;24439;-75
2022/10/29 02:32:11;;;;;;;19.70;10.30;;;;;;;10.27;100.00;99302.54;214685;1309;22471;-73
2022/10/29 02:37:13;;;;;;;17.40;11.00;;;;;;;10.30;100.00;99309.06;214720;1309;24285;-73
2022/10/29 02:42:15;;;;;;;16.80;10.50;;;;;;;10.32;100.00;99307.02;214691;1309;25365;-75
2022/10/29 02:47:17;;;;;;;19.10;11.20;;;;;;;10.31;100.00;99293.74;214639;1309;22469;-74
2022/10/29 02:52:19;;;;;;;19.20;11.70;;;;;;;10.33;100.00;99298.08;214568;1309;22485;-74
2022/10/29 02:57:20;;;;;;;20.50;11.00;;;;;;;10.38;100.00;99287.64;214821;1309;24301;-74
2022/10/29 03:02:22;;;;;;;18.60;10.70;;;;;;;10.45;100.00;99305.81;214789;1309;22470;-73
2022/10/29 03:07:24;;;;;;;20.80;11.30;;;;;;;10.53;100.00;99304.19;214746;1309;22733;-74
2022/10/29 03:12:26;;;;;;;17.70;10.80;;;;;;;10.58;100.00;99307.32;214594;1309;24260;-74
2022/10/29 03:17:28;;;;;;;17.60;10.50;;;;;;;10.60;100.00;99315.52;214556;1302;22531;-73
2022/10/29 03:22:30;;;;;;;17.30;10.40;;;;;;;10.61;100.00;99309.34;214584;1309;22521;-74
2022/10/29 03:27:31;;;;;;;19.30;11.10;;;;;;;10.61;100.00;99314.61;214698;1301;23775;-73
2022/10/29 03:32:33;;;;;;;20.90;10.80;;;;;;;10.60;100.00;99323.71;214723;1309;22576;-74
2022/10/29 03:37:35;;;;;;;20.50;11.30;;;;;;;10.60;100.00;99320.34;214650;1309;22462;-74
2022/10/29 03:42:38;;;;;;;22.20;11.20;;;;;;;10.61;100.00;99332.70;214642;1309;22487;-74
2022/10/29 03:47:39;;;;;;;20.90;11.60;;;;;;;10.63;100.00;99324.44;214580;1308;25299;-73
2022/10/29 03:52:41;;;;;;;17.90;9.50;;;;;;;10.65;100.00;99330.70;214674;1305;22467;-73
2022/10/29 03:57:43;;;;;;;20.30;11.60;;;;;;;10.67;100.00;99323.52;214622;1308;22610;-74
2022/10/29 04:02:45;;;;;;;18.90;10.30;;;;;;;10.69;100.00;99322.01;214673;1309;22526;-73
2022/10/29 04:07:47;;;;;;;18.70;9.80;;;;;;;10.71;100.00;99315.92;214663;1309;24386;-73
2022/10/29 04:12:49;;;;;;;20.40;11.20;;;;;;;10.72;100.00;99306.77;214622;1308;25456;-74
2022/10/29 04:17:51;;;;;;;21.00;11.30;;;;;;;10.72;100.00;99314.86;214717;1309;22497;-74
2022/10/29 04:22:52;;;;;;;19.10;9.50;;;;;;;10.75;100.00;99321.71;214666;1309;25449;-73
2022/10/29 04:28:14;;;;;;;19.00;9.80;;;;;;;10.80;100.00;99320.06;214467;1309;22679;-74
2022/10/29 04:33:36;;;;;;;16.70;10.30;;;;;;;10.85;100.00;99296.04;214554;1308;22606;-73
2022/10/29 04:38:38;;;;;;;18.80;9.90;;;;;;;10.88;100.00;99250.77;214617;1309;22522;-73
2022/10/29 04:43:40;;;;;;;20.20;10.10;;;;;;;10.93;100.00;99305.36;214555;1309;22484;-73
2022/10/29 04:48:42;;;;;;;16.90;9.20;;;;;;;10.95;100.00;99296.08;214666;1303;23776;-73
2022/10/29 04:53:43;;;;;;;19.90;9.90;;;;;;;10.96;100.00;99295.86;214721;1308;22602;-73
2022/10/29 04:58:45;;;;;;;14.30;8.10;;;;;;;10.96;100.00;99299.35;214569;1304;24289;-72
2022/10/29 05:03:47;;;;;;;17.90;8.30;;;;;;;10.96;100.00;99304.33;214502;1309;25383;-73
2022/10/29 05:08:49;;;;;;;15.00;9.10;;;;;;;10.94;100.00;99306.60;214660;1309;24233;-74
2022/10/29 05:13:51;;;;;;;14.50;8.00;;;;;;;10.94;100.00;99311.90;214786;1308;22461;-73
2022/10/29 05:18:52;;;;;;;17.60;8.90;;;;;;;10.92;100.00;99309.71;214710;1309;22608;-74
2022/10/29 05:23:55;;;;;;;13.20;7.70;;;;;;;10.92;100.00;99313.31;214794;1309;22478;-75
2022/10/29 05:28:57;;;;;;;13.20;7.70;;;;;;;10.94;100.00;99313.39;214728;1309;22619;-73
2022/10/29 05:33:58;;;;;;;12.60;7.50;;;;;;;10.95;100.00;99307.39;214794;1309;22469;-73
2022/10/29 05:39:00;;;;;;;15.20;7.60;;;;;;;10.97;100.00;99304.60;214711;1309;24331;-74
2022/10/29 05:44:02;;;;;;;10.60;7.00;;;;;;;10.98;100.00;99306.34;214634;1309;22564;-73
2022/10/29 05:49:04;;;;;;;12.40;6.60;;;;;;;11.00;100.00;99311.91;214701;1309;25233;-73
2022/10/29 05:54:06;;;;;;;12.20;7.60;;;;;;;11.04;100.00;99317.95;214644;1295;22610;-74
2022/10/29 05:59:08;;;;;;;14.40;7.30;;;;;;;11.09;100.00;99318.83;214757;1309;22472;-73
2022/10/29 06:04:09;;;;;;;11.00;6.10;;;;;;;11.12;100.00;99322.02;214536;1309;24327;-74
2022/10/29 06:09:11;;;;;;;12.70;7.00;;;;;;;11.16;100.00;99336.00;214487;1309;23903;-74
2022/10/29 06:14:13;;;;;;;12.60;6.80;;;;;;;11.20;100.00;99344.98;214756;1309;22416;-74
2022/10/29 06:19:15;;;;;;;12.10;6.70;;;;;;;11.26;100.00;99348.77;214424;1308;23177;-74
2022/10/29 06:24:16;;;;;;;12.90;6.80;;;;;;;11.30;100.00;99349.96;214718;1309;22529;-74
2022/10/29 06:29:18;;;;;;;10.00;6.30;;;;;;;11.34;100.00;99355.94;214761;1307;22485;-73
2022/10/29 06:34:20;;;;;;;10.70;6.60;;;;;;;11.39;100.00;99362.67;214731;1309;22471;-74
2022/10/29 06:39:22;;;;;;;13.30;7.50;;;;;;;11.43;100.00;99351.23;214678;1309;22618;-74
2022/10/29 06:44:24;;;;;;;14.20;7.10;;;;;;;11.49;100.00;99349.78;214421;1309;22552;-74
2022/10/29 06:49:26;;;;;;;12.60;6.70;;;;;;;11.52;100.00;99355.39;214668;1285;22472;-74
2022/10/29 06:54:28;;;;;;;10.80;6.90;;;;;;;11.58;100.00;99362.52;215128;1285;25384;-73
2022/10/29 06:59:29;;;;;;;9.90;6.40;;;;;;;11.64;100.00;99368.98;215024;1293;22547;-73
2022/10/29 07:04:31;;;;;;;10.20;6.30;;;;;;;11.70;100.00;99376.40;215128;1284;22552;-73
2022/10/29 07:09:33;;;;;;;9.00;6.00;;;;;;;11.77;100.00;99389.92;215386;1280;22467;-72
2022/10/29 07:14:35;;;;;;;10.10;6.20;;;;;;;11.89;100.00;99398.90;215198;1280;22462;-72
2022/10/29 07:19:36;;;;;;;10.30;6.10;;;;;;;11.98;100.00;99401.10;215149;1277;22515;-72
2022/10/29 07:24:38;;;;;;;12.60;7.10;;;;;;;12.05;100.00;99397.76;215219;1285;25330;-73
2022/10/29 07:29:40;;;;;;;11.20;6.60;;;;;;;12.12;100.00;99405.49;215175;1280;22568;-71
2022/10/29 07:34:42;;;;;;;11.70;6.20;;;;;;;12.24;100.00;99405.38;215282;1277;22502;-72
2022/10/29 07:39:44;;;;;;;10.30;6.20;;;;;;;12.37;100.00;99406.33;215244;1282;22534;-72
2022/10/29 07:44:46;;;;;;;15.00;6.50;;;;;;;12.50;100.00;99404.52;214987;1285;22464;-72
2022/10/29 07:49:47;;;;;;;12.10;6.60;;;;;;;12.59;100.00;99407.00;215396;1280;22506;-75
2022/10/29 07:54:49;;;;;;;8.80;5.50;;;;;;;12.69;100.00;99407.59;215354;1278;24241;-72
2022/10/29 07:59:51;;;;;;;10.70;6.20;;;;;;;12.82;100.00;99415.23;215174;1281;22525;-73
2022/10/29 08:04:53;;;;;;;10.40;5.60;;;;;;;12.95;100.00;99419.53;215242;1287;22706;-72
2022/10/29 08:09:55;;;;;;;11.80;6.50;;;;;;;13.18;100.00;99428.48;215321;1277;24261;-71
2022/10/29 08:14:57;;;;;;;11.00;6.90;;;;;;;13.43;100.00;99425.92;215239;1277;22522;-72
2022/10/29 08:19:58;;;;;;;8.50;5.50;;;;;;;13.64;99.59;99431.06;215316;1281;22668;-72
2022/10/29 08:25:00;;;;;;;9.00;5.90;;;;;;;13.81;98.46;99435.54;215175;1285;23781;-72
2022/10/29 08:30:05;;;;;;;9.70;6.40;;;;;;;14.01;98.61;99438.62;215185;1278;22482;-72
2022/10/29 08:35:06;;;;;;;7.90;5.30;;;;;;;14.23;98.46;99438.07;215396;1285;22483;-72
2022/10/29 08:40:20;;;;;;;8.20;5.60;;;;;;;14.44;97.34;99429.74;215341;1278;22494;-73
2022/10/29 08:45:39;;;;;;;9.80;5.50;;;;;;;14.66;96.46;99430.34;215340;1277;25224;-72
2022/10/29 08:50:47;;;;;;;12.40;6.30;;;;;;;14.92;95.93;99430.14;215593;1278;22478;-72
2022/10/29 08:55:49;;;;;;;8.00;4.90;;;;;;;15.17;95.36;99428.98;215260;1281;22979;-76
2022/10/29 09:00:55;;;;;;;9.10;4.90;;;;;;;15.36;94.08;99427.06;215166;1285;23747;-72
2022/10/29 09:06:03;;;;;;;7.00;4.60;;;;;;;15.50;93.39;99419.34;215502;1287;22580;-73
2022/10/29 09:11:43;;;;;;;8.10;4.20;;;;;;;15.64;92.87;99424.58;215440;1285;24334;-72
2022/10/29 09:16:59;;;;;;;27.70;20.20;;;;;;;15.80;91.95;99420.02;215743;1285;25657;-72
2022/10/29 09:22:16;;;;;;;5.60;4.00;;;;;;;15.92;91.60;99423.35;215549;1286;23741;-72
2022/10/29 09:27:35;;;;;;;6.00;3.70;;;;;;;16.09;90.50;99431.63;215629;1287;22918;-72
2022/10/29 09:32:56;;;;;;;5.40;3.10;;;;;;;16.31;89.56;99431.69;215607;1309;25355;-72
2022/10/29 09:38:04;;;;;;;4.30;2.80;;;;;;;16.34;88.50;99430.24;215578;1287;22603;-72
2022/10/29 09:43:16;;;;;;;4.70;3.30;;;;;;;16.48;88.55;99427.98;215490;1294;25371;-71
2022/10/29 09:48:41;;;;;;;6.90;3.40;;;;;;;16.56;86.89;99417.77;215388;1277;22714;-75
2022/10/29 09:53:43;;;;;;;6.70;3.50;;;;;;;16.63;87.20;99413.38;215646;1285;22648;-74
2022/10/29 09:58:52;;;;;;;4.60;3.30;;;;;;;16.68;86.77;99414.89;215590;1285;22595;-72
2022/10/29 10:03:58;;;;;;;7.90;4.60;;;;;;;16.69;86.94;99411.14;215273;1288;22547;-72
2022/10/29 10:09:03;;;;;;;5.60;3.30;;;;;;;16.63;86.54;99396.82;215163;1280;22482;-73
2022/10/29 10:14:15;;;;;;;13.80;9.80;;;;;;;16.56;86.96;99397.38;215041;1291;22495;-71
2022/10/29 10:19:23;;;;;;;6.60;4.50;;;;;;;16.60;86.77;99397.96;215226;1285;22485;-72
2022/10/29 10:24:36;;;;;;;6.30;4.10;;;;;;;16.68;86.33;99391.43;215642;1285;24361;-72
2022/10/29 10:29:38;;;;;;;6.10;4.40;;;;;;;16.77;86.63;99386.45;215124;1284;24388;-73
2022/10/29 10:34:39;;;;;;;8.80;5.00;;;;;;;16.86;86.77;99391.30;215348;1277;22486;-73
2022/10/29 10:39:49;;;;;;;8.90;5.60;;;;;;;16.88;85.83;99385.74;215194;1288;23294;-75
2022/10/29 10:44:56;;;;;;;7.70;5.30;;;;;;;16.86;86.01;99389.77;215355;1278;25303;-72
2022/10/29 10:50:17;;;;;;;9.10;5.60;;;;;;;16.90;86.23;99386.49;215315;1277;22735;-73
2022/10/29 10:55:30;;;;;;;10.00;6.10;;;;;;;16.92;86.20;99379.94;215228;1277;22459;-73
2022/10/29 11:00:39;;;;;;;8.10;4.70;;;;;;;17.00;85.82;99372.38;214746;1285;22491;-74
2022/10/29 11:06:06;;;;;;;7.70;4.90;;;;;;;17.10;85.63;99366.61;214986;1285;22549;-72
2022/10/29 11:11:21;;;;;;;6.90;4.40;;;;;;;17.24;84.84;99366.05;214879;1309;22474;-73
2022/10/29 11:16:45;;;;;;;6.50;4.70;;;;;;;17.31;84.88;99363.56;214668;1309;25342;-72
2022/10/29 11:22:01;;;;;;;7.40;4.70;;;;;;;17.34;84.04;99366.49;214645;1309;23776;-72
2022/10/29 11:27:18;;;;;;;8.00;5.30;;;;;;;17.39;83.78;99363.85;214655;1309;22552;-73
2022/10/29 11:32:33;;;;;;;10.60;6.00;;;;;;;17.38;83.53;99361.56;214649;1309;22476;-73
2022/10/29 11:37:46;;;;;;;8.00;5.40;;;;;;;17.41;83.52;99356.84;214625;1309;24344;-74
2022/10/29 11:42:48;;;;;;;10.20;5.50;;;;;;;17.37;83.05;99352.55;214766;1309;23799;-72
2022/10/29 11:47:56;;;;;;;7.40;5.00;;;;;;;17.21;82.88;99352.14;214512;1309;22550;-72
2022/10/29 11:53:36;;;;;;;7.50;5.20;;;;;;;17.10;83.18;99343.91;214656;1309;22468;-74
2022/10/29 11:58:55;;;;;;;9.90;6.10;;;;;;;17.13;83.89;99339.59;214686;1309;22473;-73
2022/10/29 12:04:20;;;;;;;7.20;5.60;;;;;;;17.22;83.31;99346.84;214617;1309;22475;-73
2022/10/29 12:09:36;;;;;;;7.20;5.30;;;;;;;17.31;83.72;99334.48;214622;1309;22630;-73
2022/10/29 12:14:50;;;;;;;7.30;4.80;;;;;;;17.37;83.60;99326.71;214689;1308;22483;-74
2022/10/29 12:20:32;;;;;;;7.10;4.70;;;;;;;17.31;82.73;99325.11;214535;1307;26371;-72
2022/10/29 12:25:36;;;;;;;8.10;5.20;;;;;;;17.22;83.12;99322.89;214772;1309;22478;-73
2022/10/29 12:30:46;;;;;;;9.80;5.70;;;;;;;17.24;83.49;99326.39;214535;1293;23053;-74
2022/10/29 12:36:03;;;;;;;7.20;4.90;;;;;;;17.34;83.35;99317.18;214640;1309;24279;-74
2022/10/29 12:41:14;;;;;;;11.70;6.30;;;;;;;17.40;83.08;99314.83;214837;1297;22487;-73
2022/10/29 12:46:30;;;;;;;12.40;5.60;;;;;;;17.43;83.18;99311.44;214553;1309;22464;-75
2022/10/29 12:51:38;;;;;;;9.40;6.50;;;;;;;17.54;83.53;99313.18;214661;1309;24452;-73
2022/10/29 12:56:41;;;;;;;7.00;4.60;;;;;;;17.50;82.28;99316.27;214778;1303;23776;-73
2022/10/29 13:01:50;;;;;;;7.30;4.90;;;;;;;17.44;82.66;99313.86;214662;1302;24306;-74
2022/10/29 13:07:17;;;;;;;9.40;5.80;;;;;;;17.40;82.23;99309.27;214746;1309;24265;-73
2022/10/29 13:12:58;;;;;;;8.70;5.70;;;;;;;17.37;82.52;99314.09;214687;1309;24337;-73
2022/10/29 13:18:44;;;;;;;21.40;15.60;;;;;;;17.27;82.06;99318.95;214768;1303;22507;-73
2022/10/29 13:24:03;;;;;;;8.80;6.00;;;;;;;17.22;82.90;99310.07;214683;1309;22631;-74
2022/10/29 13:29:06;;;;;;;8.70;5.10;;;;;;;17.20;82.93;99309.48;214665;1304;22475;-73
2022/10/29 13:34:08;;;;;;;9.40;6.20;;;;;;;17.11;82.47;99308.80;214558;1304;22524;-74
2022/10/29 13:39:17;;;;;;;7.10;5.10;;;;;;;17.00;82.88;99302.70;214579;1309;22963;-73
2022/10/29 13:44:21;;;;;;;;;;;;;;;16.92;83.28;99300.27;214708;1309;23258;-73
2022/10/29 13:49:44;;;;;;;8.50;5.70;;;;;;;16.81;83.37;99296.36;214795;1309;25307;-73
2022/10/29 13:54:50;;;;;;;8.10;5.00;;;;;;;16.64;83.46;99288.73;214542;1309;23091;-74
2022/10/29 14:00:05;;;;;;;16.90;10.50;;;;;;;16.48;83.94;99289.05;214786;1308;22545;-73
2022/10/29 14:05:13;;;;;;;10.80;5.40;;;;;;;16.33;84.21;99288.51;214746;1309;22487;-74
2022/10/29 14:10:41;;;;;;;8.80;6.10;;;;;;;16.17;84.48;99288.77;214512;1309;156222;-73
2022/10/29 14:16:04;;;;;;;18.00;12.60;;;;;;;16.05;84.99;99285.88;214582;1309;23068;-73
2022/10/29 14:21:15;;;;;;;13.20;6.80;;;;;;;15.97;85.47;99290.02;214659;1309;22549;-73
2022/10/29 14:26:16;;;;;;;26.20;17.50;;;;;;;15.88;85.79;99295.40;214618;1309;22482;-74
2022/10/29 14:31:23;;;;;;;12.50;7.10;;;;;;;15.78;85.94;99287.17;214720;1309;22479;-74
2022/10/29 14:36:42;;;;;;;13.90;7.40;;;;;;;15.61;86.17;99288.02;214681;1309;25293;-73
2022/10/29 14:41:46;;;;;;;13.10;7.20;;;;;;;15.39;86.54;99284.67;214761;1309;24469;-74
2022/10/29 14:47:16;;;;;;;12.50;7.90;;;;;;;15.20;86.87;99292.96;214746;1303;22523;-73
2022/10/29 14:52:40;;;;;;;12.60;7.80;;;;;;;15.00;87.27;99288.93;214560;1309;23836;-74
2022/10/29 14:57:47;;;;;;;14.30;8.40;;;;;;;14.82;87.69;99291.22;214601;1309;22487;-74
2022/10/29 15:02:49;;;;;;;15.50;9.00;;;;;;;14.62;88.33;99296.86;214613;1304;24284;-75
2022/10/29 15:08:23;;;;;;;14.90;9.10;;;;;;;14.45;88.69;99300.52;214792;1304;22540;-73
2022/10/29 15:13:31;;;;;;;14.80;10.00;;;;;;;14.28;88.90;99290.60;214614;1309;22494;-74
2022/10/29 15:18:34;;;;;;;14.70;9.70;;;;;;;14.11;89.52;99282.48;214621;1309;24301;-73
2022/10/29 15:23:43;;;;;;;14.10;9.30;;;;;;;13.92;89.85;99277.88;214650;1309;25451;-74
2022/10/29 15:28:48;;;;;;;12.60;8.50;;;;;;;13.75;90.21;99280.02;214725;1309;22487;-73
2022/10/29 15:33:52;;;;;;;12.40;8.00;;;;;;;13.61;90.59;99279.73;214798;1309;22494;-74
2022/10/29 15:39:08;;;;;;;11.70;8.70;;;;;;;13.46;91.03;99277.06;214811;1309;24285;-72
2022/10/29 15:44:30;;;;;;;13.50;9.10;;;;;;;13.32;91.43;99267.91;214551;1310;22477;-73
2022/10/29 15:49:32;;;;;;;13.40;9.00;;;;;;;13.19;91.92;99263.59;214724;1309;24164;-73
2022/10/29 15:54:34;;;;;;;13.80;8.90;;;;;;;13.06;92.38;99269.55;214804;1309;22555;-72
2022/10/29 15:59:38;;;;;;;14.50;9.20;;;;;;;12.96;92.74;99275.29;214688;1309;22476;-74
2022/10/29 16:04:40;;;;;;;12.90;8.90;;;;;;;12.87;93.03;99272.67;214544;1310;24473;-73
2022/10/29 16:09:46;;;;;;;16.60;9.60;;;;;;;12.81;93.34;99272.01;214604;1309;22646;-73
2022/10/29 16:14:48;;;;;;;16.50;9.60;;;;;;;12.76;93.60;99276.59;214637;1309;25351;-74
2022/10/29 16:19:50;;;;;;;15.10;9.20;;;;;;;12.72;93.97;99278.05;214555;1309;22471;-74
2022/10/29 16:24:52;;;;;;;15.20;10.20;;;;;;;12.68;94.09;99276.97;214666;1304;22494;-73
2022/10/29 16:29:53;;;;;;;18.60;10.10;;;;;;;12.64;94.36;99274.72;214678;1302;24470;-73
2022/10/29 16:34:55;;;;;;;16.90;10.60;;;;;;;12.60;94.64;99274.13;214732;1309;23067;-73
2022/10/29 16:39:57;;;;;;;17.80;10.90;;;;;;;12.56;95.09;99276.38;214692;1309;24379;-73
2022/10/29 16:44:59;;;;;;;19.70;11.80;;;;;;;12.54;95.38;99283.02;214625;1310;22546;-73
2022/10/29 16:50:02;;;;;;;19.90;12.40;;;;;;;12.54;95.48;99279.74;214782;1309;22478;-73
2022/10/29 16:55:04;;;;;;;19.80;12.40;;;;;;;12.51;95.83;99271.33;214583;1309;22477;-73
2022/10/29 17:00:07;;;;;;;21.40;12.70;;;;;;;12.49;95.80;99268.13;214777;1309;22466;-73
2022/10/29 17:05:10;;;;;;;19.30;12.20;;;;;;;12.48;95.82;99272.34;214772;1309;23015;-74
2022/10/29 17:10:12;;;;;;;20.20;12.40;;;;;;;12.44;95.94;99266.90;214697;1309;23196;-74
2022/10/29 17:15:14;;;;;;;19.20;11.80;;;;;;;12.39;96.08;99274.23;214645;1309;22482;-73
2022/10/29 17:20:16;;;;;;;20.60;11.50;;;;;;;12.32;96.39;99274.27;214760;1309;22487;-74
2022/10/29 17:25:17;;;;;;;22.90;12.80;;;;;;;12.25;96.89;99270.69;214778;1310;22467;-73
2022/10/29 17:30:19;;;;;;;21.40;12.80;;;;;;;12.18;97.52;99271.77;214665;1310;24337;-73
2022/10/29 17:35:21;;;;;;;20.40;12.50;;;;;;;12.12;97.67;99271.10;214647;1309;26445;-74
2022/10/29 17:40:23;;;;;;;22.70;12.40;;;;;;;12.05;97.88;99271.50;214788;1301;23851;-73
2022/10/29 17:45:25;;;;;;;22.40;13.70;;;;;;;11.97;97.98;99269.83;214639;1309;24257;-73
2022/10/29 17:50:26;;;;;;;21.40;12.70;;;;;;;11.90;98.16;99273.04;214675;1309;25707;-74
2022/10/29 17:55:28;;;;;;;26.90;16.00;;;;;;;11.84;98.40;99273.64;214572;1309;22478;-74
2022/10/29 18:00:30;;;;;;;24.50;14.50;;;;;;;11.78;98.66;99278.14;214686;1309;23740;-73
2022/10/29 18:05:32;;;;;;;26.20;14.00;;;;;;;11.74;99.05;99277.64;214682;1309;22481;-73
2022/10/29 18:10:34;;;;;;;27.60;15.70;;;;;;;11.71;99.48;99272.73;214611;1301;22732;-74
2022/10/29 18:15:36;;;;;;;26.00;15.10;;;;;;;11.67;99.38;99270.73;214611;1309;22630;-72
2022/10/29 18:20:38;;;;;;;24.30;14.10;;;;;;;11.63;99.39;99275.02;214750;1309;22470;-73
2022/10/29 18:25:40;;;;;;;27.40;15.50;;;;;;;11.61;99.53;99271.38;214581;1310;24301;-73
2022/10/29 18:30:41;;;;;;;22.30;13.60;;;;;;;11.58;99.66;99261.76;214593;1310;22553;-73
2022/10/29 18:35:43;;;;;;;24.20;14.30;;;;;;;11.55;99.79;99258.34;214655;1309;22696;-74
2022/10/29 18:40:52;;;;;;;21.40;13.80;;;;;;;11.51;99.58;99255.70;214632;1309;23396;-74
2022/10/29 18:45:58;;;;;;;26.50;15.40;;;;;;;11.45;99.75;99265.23;214864;1309;25430;-73
2022/10/29 18:51:09;;;;;;;28.00;15.10;;;;;;;11.41;99.99;99269.73;214577;1309;22611;-74
2022/10/29 18:56:13;;;;;;;29.70;15.70;;;;;;;11.38;100.00;99266.70;214568;1308;25384;-73
2022/10/29 19:01:22;;;;;;;27.80;15.80;;;;;;;11.37;100.00;99261.55;214621;1307;22593;-73
2022/10/29 19:06:26;;;;;;;27.30;15.10;;;;;;;11.35;100.00;99253.64;214787;1310;22691;-73
2022/10/29 19:11:29;;;;;;;30.70;16.70;;;;;;;11.32;100.00;99259.40;214606;1310;25347;-74
2022/10/29 19:16:31;;;;;;;29.10;16.00;;;;;;;11.32;100.00;99250.61;214779;1309;22489;-74
2022/10/29 19:21:35;;;;;;;34.50;16.80;;;;;;;11.31;100.00;99254.48;214800;1309;22707;-74
2022/10/29 19:26:37;;;;;;;27.00;15.80;;;;;;;11.32;100.00;99250.86;214785;1303;22520;-74
2022/10/29 19:31:39;;;;;;;31.50;15.90;;;;;;;11.34;100.00;99244.09;214579;1309;23275;-74
2022/10/29 19:36:41;;;;;;;31.80;17.30;;;;;;;11.39;100.00;99245.77;214733;1309;25225;-72
2022/10/29 19:41:43;;;;;;;27.60;14.60;;;;;;;11.46;100.00;99255.90;214486;1309;25397;-74
2022/10/29 19:46:45;;;;;;;28.50;15.40;;;;;;;11.53;100.00;99261.15;214706;1309;22533;-74
2022/10/29 19:51:48;;;;;;;28.70;16.40;;;;;;;11.60;100.00;99262.97;214762;1309;22499;-73
2022/10/29 19:56:49;;;;;;;26.80;14.90;;;;;;;11.64;100.00;99253.85;214583;1309;25223;-73
2022/10/29 20:01:51;;;;;;;23.60;13.70;;;;;;;11.69;100.00;99252.73;214754;1309;22716;-74
2022/10/29 20:06:53;;;;;;;26.00;14.10;;;;;;;11.72;100.00;99259.36;214734;1309;22476;-73
2022/10/29 20:11:55;;;;;;;27.00;16.80;;;;;;;11.75;100.00;99250.14;214647;1309;24327;-74
2022/10/29 20:16:57;;;;;;;27.00;16.20;;;;;;;11.78;100.00;99251.73;214663;1307;22695;-75
2022/10/29 20:21:58;;;;;;;27.20;15.90;;;;;;;11.82;100.00;99252.87;214704;1309;26270;-74
2022/10/29 20:27:00;;;;;;;25.80;15.10;;;;;;;11.83;100.00;99252.17;214681;1309;22437;-74
2022/10/29 20:32:02;;;;;;;26.30;14.70;;;;;;;11.86;100.00;99254.66;214513;1309;22521;-75
2022/10/29 20:37:04;;;;;;;27.80;15.70;;;;;;;11.87;100.00;99247.83;214578;1309;25238;-73
2022/10/29 20:42:06;;;;;;;27.50;15.30;;;;;;;11.87;100.00;99253.94;214614;1304;22715;-73
2022/10/29 20:47:07;;;;;;;30.80;18.60;;;;;;;11.86;100.00;99248.98;214511;1309;22547;-74
2022/10/29 20:52:09;;;;;;;29.90;17.40;;;;;;;11.81;100.00;99246.98;214748;1309;25289;-73
2022/10/29 20:57:11;;;;;;;30.90;16.60;;;;;;;11.78;100.00;99244.75;214744;1309;24041;-74
2022/10/29 21:02:13;;;;;;;28.20;15.70;;;;;;;11.77;100.00;99244.70;214806;1309;22694;-74
2022/10/29 21:07:15;;;;;;;27.30;16.60;;;;;;;11.76;100.00;99238.92;214785;1309;23739;-73
2022/10/29 21:12:20;;;;;;;29.50;16.70;;;;;;;11.76;100.00;99243.54;214748;1294;22632;-73
2022/10/29 21:17:23;;;;;;;26.00;15.70;;;;;;;11.77;100.00;99245.02;214701;1301;22497;-73
2022/10/29 21:22:25;;;;;;;22.30;15.10;;;;;;;11.81;100.00;99243.55;215095;1309;22472;-74
2022/10/29 21:27:27;;;;;;;25.70;15.20;;;;;;;11.83;100.00;99241.02;214705;1303;24324;-73
2022/10/29 21:32:31;;;;;;;27.20;15.40;;;;;;;11.84;100.00;99238.73;214666;1309;22511;-73
2022/10/29 21:37:33;;;;;;;24.90;14.40;;;;;;;11.84;100.00;99221.92;214675;1309;22495;-74
2022/10/29 21:42:35;;;;;;;25.80;14.80;;;;;;;11.85;100.00;99202.92;214774;1309;25236;-73
2022/10/29 21:47:42;;;;;;;21.40;13.60;;;;;;;11.85;100.00;99205.92;214460;1304;22537;-74
2022/10/29 21:52:44;;;;;;;23.70;10.70;;;;;;;11.86;100.00;99214.66;214708;1309;22466;-73
2022/10/29 21:57:45;;;;;;;27.70;14.20;;;;;;;11.85;100.00;99211.57;214462;1297;22490;-73
2022/10/29 22:02:47;;;;;;;25.70;14.20;;;;;;;11.84;100.00;99210.98;214490;1309;25225;-73
2022/10/29 22:07:49;;;;;;;23.00;13.00;;;;;;;11.83;100.00;99216.35;214538;1309;22468;-72
2022/10/29 22:12:51;;;;;;;22.60;13.40;;;;;;;11.79;100.00;99217.47;214494;1304;22493;-74
2022/10/29 22:17:53;;;;;;;23.70;13.70;;;;;;;11.72;100.00;99211.00;214707;1308;22573;-74
2022/10/29 22:22:55;;;;;;;27.00;14.00;;;;;;;11.63;100.00;99205.73;214543;1309;24526;-73
2022/10/29 22:27:57;;;;;;;23.10;13.70;;;;;;;11.54;100.00;99195.20;214499;1309;23112;-73
2022/10/29 22:33:00;;;;;;;22.00;13.10;;;;;;;11.46;100.00;99181.59;214490;1309;22500;-73
2022/10/29 22:38:02;;;;;;;23.20;13.60;;;;;;;11.39;100.00;99181.13;214499;1309;24252;-73
2022/10/29 22:43:04;;;;;;;24.60;13.90;;;;;;;11.32;100.00;99186.46;214587;1309;22474;-73
2022/10/29 22:48:06;;;;;;;27.60;14.40;;;;;;;11.26;100.00;99200.23;214586;1309;22716;-73
2022/10/29 22:53:07;;;;;;;24.90;14.50;;;;;;;11.21;100.00;99193.67;214534;1309;24344;-73
2022/10/29 22:58:09;;;;;;;26.70;16.00;;;;;;;11.14;100.00;99187.26;214704;1309;22510;-74
2022/10/29 23:03:11;;;;;;;24.10;14.20;;;;;;;11.11;100.00;99184.12;214666;1309;24109;-73
2022/10/29 23:08:13;;;;;;;26.10;15.20;;;;;;;11.06;100.00;99181.80;214581;1295;22481;-73
2022/10/29 23:13:15;;;;;;;25.90;14.20;;;;;;;11.01;100.00;99176.33;214449;1309;22521;-74
2022/10/29 23:18:18;;;;;;;27.10;15.50;;;;;;;10.95;100.00;99181.62;214432;1305;22499;-73